Terminal Aerodrome Forecast
Issued by NWS

Home | Current Version | Previous Version | Text Only | Print | Product List | Glossary On
Versions: 1 2 3 4 5 6 7 8 9 10 11 12 13 14 15 16 17 18 19 20 21
000
FTUS45 KTFX 161700
TAFGTF
TAF
KGTF 161730Z 1618/1718 31005KT P6SM OVC015
     FM161900 VRB06KT P6SM SCT015 BKN050
      TEMPO 1621/1701 2SM -SN OVC015
     FM170600 20008KT P6SM BKN120=

USA.gov is the U.S. government's official web portal to all federal, state and local government web resources and services.